Time;durP1;ratioP1;P1;durP2;ratioP2;P2;SDS_P1;SDS_P2;PMS_P1;PMS_P2;Temp;Humidity;BMP_temperature;BMP_pressure;BME280_temperature;BME280_humidity;BME280_pressure;Samples;Min_cycle;Max_cycle;Signal;HPM_P1;HPM_P2
2023/08/06 00:02:12;;;;;;;;;;;;;;;29.14;40.55;93754.66;5008997;28;8882;-85
2023/08/06 00:04:38;;;;;;;;;;;;;;;29.12;40.16;93754.47;5021764;28;8972;-85
2023/08/06 00:07:04;;;;;;;;;;;;;;;29.08;40.04;93755.56;5005536;28;8991;-85
2023/08/06 00:09:31;;;;;;;;;;;;;;;29.13;40.13;93750.41;5026877;28;9080;-85
2023/08/06 00:11:58;;;;;;;;;;;;;;;29.10;40.14;93752.25;5014947;28;7005;-85
2023/08/06 00:14:24;;;;;;;;;;;;;;;29.10;40.99;93752.97;5024179;28;8803;-85
2023/08/06 00:16:50;;;;;;;;;;;;;;;29.08;40.19;93744.50;5027705;28;9005;-85
2023/08/06 00:19:18;;;;;;;;;;;;;;;29.07;40.60;93743.03;5032641;28;7339;-85
2023/08/06 00:21:49;;;;;;;;;;;;;;;29.07;40.43;93731.94;5006707;28;9362;-85
2023/08/06 00:24:16;;;;;;;;;;;;;;;29.04;40.58;93735.81;5018041;28;7352;-85
2023/08/06 00:26:44;;;;;;;;;;;;;;;29.01;40.73;93727.88;5008171;28;8153;-85
2023/08/06 00:29:10;;;;;;;;;;;;;;;28.99;40.64;93730.44;5020860;28;8770;-85
2023/08/06 00:31:36;;;;;;;;;;;;;;;29.08;40.71;93729.91;5022514;28;8830;-85
2023/08/06 00:34:02;;;;;;;;;;;;;;;29.02;40.02;93723.78;5004799;28;8721;-85
2023/08/06 00:36:28;;;;;;;;;;;;;;;28.98;40.49;93715.84;5024068;28;9067;-85
2023/08/06 00:38:55;;;;;;;;;;;;;;;29.01;40.97;93716.78;5007537;28;7244;-86
2023/08/06 00:41:22;;;;;;;;;;;;;;;29.04;40.85;93713.66;5015189;28;8995;-86
2023/08/06 00:43:48;;;;;;;;;;;;;;;29.06;40.39;93713.09;5007075;28;7268;-85
2023/08/06 00:46:17;;;;;;;;;;;;;;;29.05;40.22;93704.06;5023734;28;8731;-85
2023/08/06 00:48:43;;;;;;;;;;;;;;;29.02;40.54;93691.31;5019791;28;7086;-85
2023/08/06 00:51:11;;;;;;;;;;;;;;;29.03;39.95;93697.59;5021668;28;8786;-85
2023/08/06 00:53:40;;;;;;;;;;;;;;;29.01;40.55;93698.13;5022362;28;8778;-85
2023/08/06 00:56:12;;;;;;;;;;;;;;;29.01;40.47;93705.72;5002751;28;8767;-85
2023/08/06 00:58:39;;;;;;;;;;;;;;;28.99;40.20;93700.72;5019652;28;7173;-84
2023/08/06 01:01:05;;;;;;;;;;;;;;;28.95;40.86;93692.03;5005806;28;7070;-85
2023/08/06 01:03:31;;;;;;;;;;;;;;;29.02;40.65;93702.38;5007488;28;8885;-85
2023/08/06 01:05:58;;;;;;;;;;;;;;;29.01;40.43;93700.91;5009656;28;6940;-85
2023/08/06 01:08:43;;;;;;;;;;;;;;;29.01;40.46;93708.47;5006108;28;8891;-85
2023/08/06 01:11:36;;;;;;;;;;;;;;;28.97;40.40;93708.81;5007123;28;9103;-85
2023/08/06 01:14:23;;;;;;;;;;;;;;;29.00;40.40;93707.75;5022691;28;7043;-85
2023/08/06 01:16:51;;;;;;;;;;;;;;;28.99;40.99;93697.94;5007792;28;9377;-84
2023/08/06 01:19:21;;;;;;;;;;;;;;;29.01;41.10;93700.91;5008871;28;9049;-85
2023/08/06 01:21:47;;;;;;;;;;;;;;;28.99;40.58;93700.72;5023134;28;9113;-85
2023/08/06 01:24:14;;;;;;;;;;;;;;;28.97;40.48;93700.53;5002919;28;7032;-85
2023/08/06 01:27:08;;;;;;;;;;;;;;;29.00;40.24;93693.91;5019024;28;9025;-84
2023/08/06 01:29:45;;;;;;;;;;;;;;;29.02;40.40;93685.03;5019695;28;8719;-85
2023/08/06 01:32:14;;;;;;;;;;;;;;;28.96;40.27;93687.97;5004307;28;8983;-85
2023/08/06 01:34:44;;;;;;;;;;;;;;;28.92;40.02;93687.59;5020876;28;9048;-85
2023/08/06 01:37:11;;;;;;;;;;;;;;;28.97;40.52;93685.97;5003672;28;8940;-85
2023/08/06 01:39:42;;;;;;;;;;;;;;;28.91;41.08;93686.13;5006200;28;7125;-85
2023/08/06 01:42:11;;;;;;;;;;;;;;;28.95;40.60;93685.75;5019431;28;8995;-85
2023/08/06 01:44:42;;;;;;;;;;;;;;;28.95;40.74;93692.03;5022294;28;7269;-85
2023/08/06 01:47:10;;;;;;;;;;;;;;;28.94;40.28;93684.28;5013199;28;9125;-85
2023/08/06 01:49:36;;;;;;;;;;;;;;;28.91;40.51;93677.81;5003770;28;9087;-85
2023/08/06 01:52:08;;;;;;;;;;;;;;;28.95;40.34;93685.75;5022685;28;9008;-85
2023/08/06 01:54:34;;;;;;;;;;;;;;;28.93;40.22;93672.47;5004717;28;7302;-85
2023/08/06 01:57:01;;;;;;;;;;;;;;;28.93;40.09;93672.47;5014924;28;8808;-85
2023/08/06 01:59:27;;;;;;;;;;;;;;;28.92;40.76;93676.53;5023281;28;8728;-85
2023/08/06 02:01:53;;;;;;;;;;;;;;;28.89;40.11;93665.81;5020597;28;7327;-85
2023/08/06 02:04:19;;;;;;;;;;;;;;;28.89;40.54;93663.03;5022998;28;9671;-85
2023/08/06 02:06:45;;;;;;;;;;;;;;;28.93;40.58;93655.84;5021127;28;8922;-86
2023/08/06 02:09:13;;;;;;;;;;;;;;;28.91;41.18;93638.31;5012707;28;9090;-85
2023/08/06 02:11:43;;;;;;;;;;;;;;;28.84;40.12;93628.69;5026613;28;9011;-85
2023/08/06 02:14:09;;;;;;;;;;;;;;;28.82;39.82;93628.50;5026558;28;8840;-85
2023/08/06 02:16:39;;;;;;;;;;;;;;;28.87;40.11;93627.59;5021713;28;6869;-85
2023/08/06 02:19:11;;;;;;;;;;;;;;;28.87;40.34;93619.31;5024521;28;9021;-85
2023/08/06 02:21:40;;;;;;;;;;;;;;;28.86;40.36;93620.56;5008059;28;9055;-85
2023/08/06 02:24:09;;;;;;;;;;;;;;;28.86;40.17;93625.41;5008627;28;7283;-85
2023/08/06 02:26:38;;;;;;;;;;;;;;;28.86;40.54;93628.88;5010908;28;8731;-85
2023/08/06 02:29:04;;;;;;;;;;;;;;;28.82;40.91;93622.97;5008153;28;6978;-85
2023/08/06 02:31:30;;;;;;;;;;;;;;;28.84;40.11;93625.22;5015392;28;8743;-85
2023/08/06 02:33:58;;;;;;;;;;;;;;;28.82;40.20;93622.22;5022945;28;8724;-85
2023/08/06 02:36:29;;;;;;;;;;;;;;;28.86;40.87;93631.66;5025029;28;8927;-85
2023/08/06 02:38:56;;;;;;;;;;;;;;;28.82;39.97;93606.38;5010912;28;8616;-85
2023/08/06 02:41:24;;;;;;;;;;;;;;;28.86;40.54;93617.81;5005057;28;9071;-85
2023/08/06 02:43:50;;;;;;;;;;;;;;;28.85;40.47;93616.34;5014371;28;7104;-85
2023/08/06 02:46:16;;;;;;;;;;;;;;;28.86;40.72;93617.09;5009339;28;9003;-85
2023/08/06 02:48:44;;;;;;;;;;;;;;;28.83;40.82;93612.66;5025615;28;8679;-85
2023/08/06 02:51:11;;;;;;;;;;;;;;;28.77;40.27;93604.53;5004366;28;9066;-85
2023/08/06 02:53:37;;;;;;;;;;;;;;;28.83;40.97;93605.09;5023107;28;7357;-84
2023/08/06 02:56:04;;;;;;;;;;;;;;;28.80;40.32;93606.19;5007322;28;9258;-85
2023/08/06 02:58:31;;;;;;;;;;;;;;;28.84;40.89;93609.31;5026231;28;9389;-85
2023/08/06 03:01:00;;;;;;;;;;;;;;;28.85;40.64;93616.34;5014086;28;7268;-85
2023/08/06 03:03:29;;;;;;;;;;;;;;;28.81;40.07;93612.47;5019286;28;9029;-85
2023/08/06 03:05:57;;;;;;;;;;;;;;;28.80;40.70;93614.47;5025225;28;9112;-85
2023/08/06 03:08:23;;;;;;;;;;;;;;;28.82;40.25;93613.94;5008044;28;9273;-87
2023/08/06 03:10:50;;;;;;;;;;;;;;;28.82;40.25;93611.16;5010350;28;8740;-87
2023/08/06 03:13:16;;;;;;;;;;;;;;;28.79;40.47;93610.25;5024898;28;8785;-86
2023/08/06 03:15:43;;;;;;;;;;;;;;;28.82;40.21;93611.16;5009008;28;7154;-87
2023/08/06 03:18:09;;;;;;;;;;;;;;;28.82;40.30;93605.63;5024193;28;9302;-87
2023/08/06 03:20:35;;;;;;;;;;;;;;;28.80;40.10;93610.97;5008812;28;7049;-87
2023/08/06 03:23:01;;;;;;;;;;;;;;;28.74;40.40;93596.56;5017503;28;8741;-87
2023/08/06 03:25:27;;;;;;;;;;;;;;;28.73;40.37;93598.59;5022927;28;7238;-86
2023/08/06 03:27:54;;;;;;;;;;;;;;;28.76;40.19;93596.75;5012634;28;9292;-87
2023/08/06 03:30:21;;;;;;;;;;;;;;;28.72;40.43;93597.13;5019108;28;9154;-86
2023/08/06 03:32:49;;;;;;;;;;;;;;;28.78;40.41;93605.25;5011501;28;7287;-87
2023/08/06 03:35:15;;;;;;;;;;;;;;;28.78;40.64;93602.47;5013795;28;9062;-86
2023/08/06 03:37:43;;;;;;;;;;;;;;;28.78;39.84;93611.53;5009967;28;9318;-87
2023/08/06 03:40:10;;;;;;;;;;;;;;;28.76;40.69;93605.81;5011517;28;9258;-87
2023/08/06 03:42:38;;;;;;;;;;;;;;;28.71;40.42;93597.69;5021870;28;9426;-86
2023/08/06 03:45:04;;;;;;;;;;;;;;;28.71;40.59;93603.94;5024598;28;9094;-87
2023/08/06 03:47:32;;;;;;;;;;;;;;;28.67;40.55;93592.50;5023431;28;6948;-87
2023/08/06 03:50:02;;;;;;;;;;;;;;;28.65;40.30;93595.09;5008790;28;7227;-87
2023/08/06 03:52:28;;;;;;;;;;;;;;;28.67;40.14;93591.75;5004880;28;7268;-87
2023/08/06 03:54:59;;;;;;;;;;;;;;;28.70;39.98;93602.47;5009570;28;8746;-87
2023/08/06 03:57:25;;;;;;;;;;;;;;;28.70;40.61;93599.72;5020927;28;7268;-87
2023/08/06 03:59:51;;;;;;;;;;;;;;;28.69;40.64;93603.00;5030047;28;9039;-87
2023/08/06 04:02:18;;;;;;;;;;;;;;;28.70;40.23;93607.28;5018965;28;9059;-87
2023/08/06 04:04:44;;;;;;;;;;;;;;;28.65;40.70;93595.09;5020698;28;7161;-87
2023/08/06 04:07:10;;;;;;;;;;;;;;;28.64;40.23;93599.16;5019407;28;8657;-87
2023/08/06 04:09:53;;;;;;;;;;;;;;;28.70;39.95;93616.31;5010954;28;9024;-87
2023/08/06 04:12:21;;;;;;;;;;;;;;;28.70;39.96;93615.56;5005538;28;9020;-87
2023/08/06 04:14:48;;;;;;;;;;;;;;;28.68;39.79;93602.28;5007993;28;6896;-87
2023/08/06 04:17:14;;;;;;;;;;;;;;;28.62;40.12;93610.03;5004971;28;7175;-85
2023/08/06 04:19:42;;;;;;;;;;;;;;;28.71;39.98;93611.53;5004411;28;6988;-85
2023/08/06 04:22:08;;;;;;;;;;;;;;;28.71;40.73;93612.25;5018891;28;8746;-85
2023/08/06 04:24:35;;;;;;;;;;;;;;;28.71;40.79;93611.53;5006079;28;8941;-85
2023/08/06 04:27:04;;;;;;;;;;;;;;;28.70;40.23;93619.09;5005230;28;7284;-84
2023/08/06 04:29:31;;;;;;;;;;;;;;;28.70;40.00;93621.09;5005262;28;7034;-85
2023/08/06 04:31:57;;;;;;;;;;;;;;;28.62;40.17;93612.81;5017605;28;8675;-85
2023/08/06 04:34:27;;;;;;;;;;;;;;;28.65;40.29;93613.69;5011364;28;9016;-85
2023/08/06 04:36:55;;;;;;;;;;;;;;;28.67;40.23;93617.41;5017694;28;9096;-85
2023/08/06 04:39:21;;;;;;;;;;;;;;;28.70;40.13;93624.63;5029878;28;7578;-85
2023/08/06 04:41:49;;;;;;;;;;;;;;;28.65;40.65;93614.44;5010207;28;8626;-85
2023/08/06 04:44:15;;;;;;;;;;;;;;;28.67;40.53;93622.94;5016855;28;8601;-85
2023/08/06 04:46:46;;;;;;;;;;;;;;;28.70;40.18;93627.38;5006484;28;8827;-84
2023/08/06 04:49:14;;;;;;;;;;;;;;;28.69;40.19;93625.91;5013506;28;9324;-84
2023/08/06 04:51:40;;;;;;;;;;;;;;;28.69;40.29;93631.44;5028695;28;9176;-84
2023/08/06 04:54:06;;;;;;;;;;;;;;;28.62;40.76;93617.59;5016538;28;8771;-84
2023/08/06 04:56:32;;;;;;;;;;;;;;;28.64;40.68;93628.84;5006393;28;9317;-85
2023/08/06 04:58:59;;;;;;;;;;;;;;;28.67;40.60;93633.25;4999406;28;9099;-85
2023/08/06 05:01:29;;;;;;;;;;;;;;;28.63;39.88;93632.88;5002755;28;9035;-84
2023/08/06 05:03:57;;;;;;;;;;;;;;;28.66;40.47;93649.16;5002108;28;8654;-85
2023/08/06 05:06:26;;;;;;;;;;;;;;;28.67;40.55;93669.97;5024446;28;9021;-84
2023/08/06 05:08:51;;;;;;;;;;;;;;;28.63;40.08;93661.31;5020094;28;9101;-85
2023/08/06 05:11:17;;;;;;;;;;;;;;;28.67;40.31;93669.97;5024309;28;9075;-85
2023/08/06 05:13:44;;;;;;;;;;;;;;;28.65;40.13;93675.31;5012829;28;7323;-85
2023/08/06 05:16:13;;;;;;;;;;;;;;;28.60;39.96;93673.47;5020612;28;7472;-84
2023/08/06 05:18:39;;;;;;;;;;;;;;;28.63;40.24;93671.63;5005238;28;9099;-85
2023/08/06 05:21:08;;;;;;;;;;;;;;;28.65;39.80;93669.78;5022310;28;9115;-85
2023/08/06 05:23:34;;;;;;;;;;;;;;;28.64;40.32;93673.88;5007399;28;8939;-85
2023/08/06 05:26:00;;;;;;;;;;;;;;;28.62;39.72;93676.44;5020598;28;8613;-85
2023/08/06 05:28:28;;;;;;;;;;;;;;;28.62;39.98;93684.75;5023622;28;7306;-85
2023/08/06 05:30:56;;;;;;;;;;;;;;;28.63;39.71;93694.50;5018657;28;7247;-85
2023/08/06 05:33:22;;;;;;;;;;;;;;;28.61;39.53;93685.28;5003358;28;8701;-85
2023/08/06 05:35:50;;;;;;;;;;;;;;;28.54;39.76;93697.75;5020312;28;8726;-85
2023/08/06 05:38:17;;;;;;;;;;;;;;;28.62;39.98;93708.91;5001013;28;9091;-85
2023/08/06 05:40:43;;;;;;;;;;;;;;;28.54;40.29;93694.25;5007397;28;8955;-85
2023/08/06 05:43:09;;;;;;;;;;;;;;;28.54;40.37;93706.06;5023708;28;7032;-85
2023/08/06 05:45:38;;;;;;;;;;;;;;;28.60;40.43;93717.72;5009985;28;9101;-85
2023/08/06 05:48:04;;;;;;;;;;;;;;;28.59;40.25;93727.34;5024079;28;7053;-85
2023/08/06 05:50:32;;;;;;;;;;;;;;;28.61;40.14;93733.06;5010213;28;9158;-85
2023/08/06 05:53:00;;;;;;;;;;;;;;;28.59;40.59;93735.63;5007093;28;7270;-85
2023/08/06 05:55:26;;;;;;;;;;;;;;;28.56;40.49;93735.97;5023380;28;8721;-85
2023/08/06 05:57:53;;;;;;;;;;;;;;;28.56;39.83;93745.00;5008801;28;8922;-86
2023/08/06 06:00:20;;;;;;;;;;;;;;;28.58;40.29;93744.50;5009137;28;8997;-86
2023/08/06 06:02:48;;;;;;;;;;;;;;;28.58;40.67;93756.28;5007618;28;7052;-85
2023/08/06 06:05:14;;;;;;;;;;;;;;;28.57;40.59;93760.34;5006914;28;8701;-85
2023/08/06 06:07:40;;;;;;;;;;;;;;;28.55;40.29;93743.53;5020300;28;9060;-86
2023/08/06 06:10:09;;;;;;;;;;;;;;;28.58;40.08;93759.03;5002198;28;9031;-86
2023/08/06 06:12:35;;;;;;;;;;;;;;;28.56;40.31;93749.81;5009350;28;8571;-85
2023/08/06 06:15:04;;;;;;;;;;;;;;;28.56;40.59;93752.56;5009221;28;7375;-85
2023/08/06 06:17:41;;;;;;;;;;;;;;;28.59;40.28;93768.84;5003385;28;7340;-85
2023/08/06 06:20:07;;;;;;;;;;;;;;;28.59;40.60;93760.53;5021317;28;8590;-86
2023/08/06 06:22:33;;;;;;;;;;;;;;;28.53;40.34;93754.41;5007843;28;9178;-85
2023/08/06 06:24:59;;;;;;;;;;;;;;;28.60;40.75;93761.28;5015194;28;6877;-84
2023/08/06 06:27:25;;;;;;;;;;;;;;;28.56;40.43;93756.06;5004173;28;8730;-84
2023/08/06 06:29:52;;;;;;;;;;;;;;;28.60;40.22;93767.53;5008845;28;8687;-84
2023/08/06 06:32:21;;;;;;;;;;;;;;;28.61;39.79;93779.34;5019109;28;7276;-85
2023/08/06 06:34:47;;;;;;;;;;;;;;;28.59;40.24;93779.91;5007917;28;9079;-84
2023/08/06 06:37:13;;;;;;;;;;;;;;;28.58;40.19;93769.38;5017055;28;9876;-86
2023/08/06 06:39:39;;;;;;;;;;;;;;;28.61;40.37;93779.34;5003206;28;9061;-86
2023/08/06 06:42:07;;;;;;;;;;;;;;;28.62;39.85;93781.59;5011945;28;9010;-86
2023/08/06 06:44:33;;;;;;;;;;;;;;;28.61;39.87;93780.09;5010218;28;8828;-86
2023/08/06 06:47:02;;;;;;;;;;;;;;;28.62;39.92;93783.59;5013879;28;8770;-86
2023/08/06 06:49:29;;;;;;;;;;;;;;;28.61;40.26;93788.41;5023255;28;8709;-86
2023/08/06 06:51:56;;;;;;;;;;;;;;;28.61;40.72;93799.47;5007884;28;8968;-86
2023/08/06 06:54:23;;;;;;;;;;;;;;;28.61;40.58;93796.69;5024141;28;7244;-86
2023/08/06 06:56:49;;;;;;;;;;;;;;;28.55;40.54;93792.56;5008093;28;9084;-86
2023/08/06 06:59:15;;;;;;;;;;;;;;;28.55;40.05;93798.84;5010411;28;8784;-87
2023/08/06 07:01:43;;;;;;;;;;;;;;;28.59;40.40;93798.53;5006403;28;7250;-87
2023/08/06 07:04:12;;;;;;;;;;;;;;;28.63;40.33;93802.44;5023292;28;9103;-87
2023/08/06 07:06:38;;;;;;;;;;;;;;;28.60;39.86;93800.03;5008569;28;7036;-87
2023/08/06 07:09:07;;;;;;;;;;;;;;;28.66;40.00;93797.84;5019733;28;8604;-86
2023/08/06 07:11:33;;;;;;;;;;;;;;;28.69;40.55;93793.97;5025435;28;8595;-86
2023/08/06 07:13:59;;;;;;;;;;;;;;;28.67;40.15;93802.06;5008640;28;7134;-86
2023/08/06 07:16:26;;;;;;;;;;;;;;;28.61;40.11;93791.16;5023448;28;6977;-86
2023/08/06 07:18:54;;;;;;;;;;;;;;;28.65;40.32;93794.31;5022968;28;8616;-86
2023/08/06 07:21:20;;;;;;;;;;;;;;;28.67;40.44;93800.03;5001287;28;7376;-86
2023/08/06 07:23:49;;;;;;;;;;;;;;;28.66;40.11;93800.59;5009227;28;9111;-86
2023/08/06 07:26:16;;;;;;;;;;;;;;;28.65;40.27;93797.09;5008543;28;6999;-86
2023/08/06 07:28:42;;;;;;;;;;;;;;;28.65;40.95;93802.63;5003923;28;8830;-86
2023/08/06 07:31:09;;;;;;;;;;;;;;;28.61;40.46;93810.53;5005640;28;9080;-87
2023/08/06 07:33:35;;;;;;;;;;;;;;;28.63;40.80;93807.97;5009378;28;8696;-86
2023/08/06 07:36:08;;;;;;;;;;;;;;;28.60;40.83;93800.75;5009423;28;7002;-86
2023/08/06 07:38:36;;;;;;;;;;;;;;;28.62;40.65;93814.06;5026256;28;8837;-86
2023/08/06 07:41:03;;;;;;;;;;;;;;;28.57;40.79;93807.38;5007255;28;7385;-86
2023/08/06 07:43:31;;;;;;;;;;;;;;;28.64;40.46;93812.22;5023215;28;8694;-86
2023/08/06 07:46:01;;;;;;;;;;;;;;;28.66;40.91;93820.72;5021495;28;9024;-86
2023/08/06 07:48:29;;;;;;;;;;;;;;;28.66;40.85;93819.97;5020601;28;9885;-85
2023/08/06 07:50:56;;;;;;;;;;;;;;;28.63;40.34;93819.03;5014447;28;9040;-85
2023/08/06 07:53:23;;;;;;;;;;;;;;;28.58;40.45;93817.16;5020990;28;9006;-85
2023/08/06 07:55:51;;;;;;;;;;;;;;;28.57;40.61;93818.44;5007896;28;7180;-85
2023/08/06 07:58:18;;;;;;;;;;;;;;;28.63;40.27;93837.66;5023251;28;8718;-85
2023/08/06 08:00:46;;;;;;;;;;;;;;;28.63;40.89;93846.69;5025784;28;7225;-86
2023/08/06 08:03:16;;;;;;;;;;;;;;;28.63;40.38;93843.19;5005188;28;9043;-85
2023/08/06 08:05:43;;;;;;;;;;;;;;;28.63;40.27;93845.97;5004469;28;9105;-85
2023/08/06 08:08:09;;;;;;;;;;;;;;;28.62;40.66;93847.25;5006510;28;9020;-86
2023/08/06 08:10:37;;;;;;;;;;;;;;;28.60;40.25;93845.00;5008256;28;10145;-85
2023/08/06 08:13:05;;;;;;;;;;;;;;;28.56;40.66;93852.91;5006145;28;9065;-85
2023/08/06 08:15:34;;;;;;;;;;;;;;;28.61;40.39;93862.38;5023261;28;7084;-85
2023/08/06 08:18:00;;;;;;;;;;;;;;;28.58;40.45;93864.19;5023250;28;8702;-85
2023/08/06 08:20:31;;;;;;;;;;;;;;;28.60;40.56;93872.69;5004171;28;8748;-85
2023/08/06 08:23:00;;;;;;;;;;;;;;;28.62;40.43;93881.22;5022102;28;9026;-84
2023/08/06 08:25:28;;;;;;;;;;;;;;;28.59;40.36;93867.69;5021828;28;9098;-85
2023/08/06 08:27:55;;;;;;;;;;;;;;;28.60;40.10;93872.69;5008215;28;9131;-84
2023/08/06 08:30:22;;;;;;;;;;;;;;;28.60;39.96;93869.19;5024103;28;7286;-84
2023/08/06 08:32:49;;;;;;;;;;;;;;;28.57;40.66;93862.72;5021608;28;8732;-84
2023/08/06 08:35:15;;;;;;;;;;;;;;;28.58;40.01;93855.16;5024360;28;7013;-85
2023/08/06 08:37:43;;;;;;;;;;;;;;;28.60;40.51;93845.00;5009657;28;9303;-84
2023/08/06 08:40:14;;;;;;;;;;;;;;;28.59;39.88;93857.38;5022635;28;8709;-85
2023/08/06 08:42:40;;;;;;;;;;;;;;;28.57;40.58;93857.19;5022962;28;7022;-85
2023/08/06 08:45:13;;;;;;;;;;;;;;;28.60;40.60;93863.66;5008937;28;7143;-85
2023/08/06 08:47:47;;;;;;;;;;;;;;;28.54;40.30;93865.78;5023001;28;9062;-84
2023/08/06 08:50:14;;;;;;;;;;;;;;;28.59;40.42;93876.75;5006229;28;9128;-84
2023/08/06 08:52:45;;;;;;;;;;;;;;;28.57;40.42;93876.56;5004274;28;8208;-85
2023/08/06 08:55:13;;;;;;;;;;;;;;;28.57;40.72;93870.25;5000930;28;9009;-84
2023/08/06 08:57:39;;;;;;;;;;;;;;;28.50;40.83;93863.38;5022510;28;9022;-86
2023/08/06 09:00:06;;;;;;;;;;;;;;;28.55;41.12;93864.50;5022611;28;8748;-87
2023/08/06 09:02:33;;;;;;;;;;;;;;;28.57;40.36;93865.50;5005478;28;7361;-87
2023/08/06 09:05:04;;;;;;;;;;;;;;;28.57;40.96;93868.25;5021324;28;7270;-87
2023/08/06 09:07:45;;;;;;;;;;;;;;;28.55;40.51;93870.78;5020062;28;7278;-87
2023/08/06 09:10:15;;;;;;;;;;;;;;;28.59;40.38;93871.22;5021041;28;8818;-87
2023/08/06 09:12:42;;;;;;;;;;;;;;;28.55;40.47;93872.81;5023497;28;9033;-87
2023/08/06 09:15:08;;;;;;;;;;;;;;;28.57;40.22;93876.56;5021621;28;9121;-87
2023/08/06 09:17:36;;;;;;;;;;;;;;;28.58;40.74;93871.78;5025957;28;9374;-87
2023/08/06 09:20:13;;;;;;;;;;;;;;;28.56;40.20;93866.72;5021395;28;7667;-87
2023/08/06 09:22:42;;;;;;;;;;;;;;;28.55;40.69;93865.25;5004158;28;8770;-87
2023/08/06 09:25:13;;;;;;;;;;;;;;;28.55;40.24;93870.78;5020281;28;8738;-87
2023/08/06 09:27:46;;;;;;;;;;;;;;;28.56;41.05;93869.50;5007096;28;9295;-87
2023/08/06 09:30:30;;;;;;;;;;;;;;;28.57;40.23;93878.53;5021537;28;6991;-87
2023/08/06 09:32:59;;;;;;;;;;;;;;;28.53;40.18;93876.13;5005244;28;7164;-86
2023/08/06 09:35:31;;;;;;;;;;;;;;;28.56;40.64;93888.88;5008173;28;9000;-87
2023/08/06 09:38:19;;;;;;;;;;;;;;;28.53;40.55;93895.50;5026206;28;9040;-87
2023/08/06 09:40:52;;;;;;;;;;;;;;;28.53;40.78;93887.19;5023115;28;8982;-87
2023/08/06 09:43:19;;;;;;;;;;;;;;;28.48;40.82;93895.63;5023374;28;8745;-87
2023/08/06 09:45:46;;;;;;;;;;;;;;;28.47;40.19;93894.88;5009713;28;8793;-87
2023/08/06 09:48:16;;;;;;;;;;;;;;;28.44;40.56;93890.44;5003474;28;8663;-87
2023/08/06 09:50:43;;;;;;;;;;;;;;;28.40;40.72;93894.84;5007167;28;8740;-87
2023/08/06 09:53:12;;;;;;;;;;;;;;;28.46;41.04;93912.03;5005411;28;7276;-86
2023/08/06 09:55:39;;;;;;;;;;;;;;;28.43;41.22;93905.53;5023476;28;7272;-87
2023/08/06 09:58:06;;;;;;;;;;;;;;;28.45;40.97;93905.75;5023827;28;8821;-87
2023/08/06 10:00:35;;;;;;;;;;;;;;;28.43;41.09;93900.00;5019404;28;8909;-87
2023/08/06 10:03:01;;;;;;;;;;;;;;;28.40;41.44;93903.88;5024723;28;8643;-87
2023/08/06 10:05:29;;;;;;;;;;;;;;;28.36;40.82;93893.13;5013456;28;8992;-87
2023/08/06 10:07:57;;;;;;;;;;;;;;;28.40;41.32;93914.94;5020924;28;8788;-85
2023/08/06 10:10:27;;;;;;;;;;;;;;;28.45;41.46;93916.09;5021356;28;9087;-85
2023/08/06 10:12:58;;;;;;;;;;;;;;;28.45;40.69;93916.09;5018421;28;7036;-85
2023/08/06 10:15:31;;;;;;;;;;;;;;;28.39;41.45;93902.38;5022168;28;7449;-85
2023/08/06 10:18:27;;;;;;;;;;;;;;;28.46;41.19;93912.03;5008272;28;7029;-85
2023/08/06 10:20:56;;;;;;;;;;;;;;;28.44;41.03;93922.91;4993628;28;9037;-84
2023/08/06 10:23:35;;;;;;;;;;;;;;;28.38;41.86;93909.22;4996350;28;9042;-85
2023/08/06 10:26:01;;;;;;;;;;;;;;;28.40;42.07;93917.72;5009844;28;10352;-85
2023/08/06 10:28:39;;;;;;;;;;;;;;;28.42;42.24;93923.44;4994057;28;7305;-84
2023/08/06 10:31:08;;;;;;;;;;;;;;;28.44;42.96;93931.94;5007295;28;9040;-85
2023/08/06 10:33:46;;;;;;;;;;;;;;;28.40;42.97;93928.03;5009826;28;8765;-85
2023/08/06 10:36:17;;;;;;;;;;;;;;;28.39;42.79;93924.50;4989719;28;9060;-85
2023/08/06 10:38:45;;;;;;;;;;;;;;;28.36;43.73;93925.63;5006875;28;9015;-85
2023/08/06 10:41:29;;;;;;;;;;;;;;;28.36;43.00;93934.63;4992545;28;9171;-85
2023/08/06 10:44:09;;;;;;;;;;;;;;;28.38;44.21;93937.59;4992210;28;7243;-85
2023/08/06 10:46:38;;;;;;;;;;;;;;;28.39;43.38;93946.66;5008486;28;9129;-85
2023/08/06 10:49:04;;;;;;;;;;;;;;;28.37;43.32;93938.16;5005860;28;9027;-85
2023/08/06 10:51:33;;;;;;;;;;;;;;;28.34;43.36;93936.44;5007705;28;8893;-85
2023/08/06 10:53:59;;;;;;;;;;;;;;;28.34;42.94;93933.69;4994656;28;9038;-85
2023/08/06 10:56:27;;;;;;;;;;;;;;;28.35;42.58;93943.47;4992124;28;9176;-85
2023/08/06 10:58:59;;;;;;;;;;;;;;;28.38;43.15;93939.66;5011426;28;8818;-85
2023/08/06 11:01:29;;;;;;;;;;;;;;;28.32;42.90;93920.41;5007524;28;8935;-85
2023/08/06 11:03:56;;;;;;;;;;;;;;;28.36;43.00;93929.09;5025240;28;8788;-85
2023/08/06 11:06:23;;;;;;;;;;;;;;;28.34;42.98;93919.84;5007648;28;10086;-84
2023/08/06 11:08:56;;;;;;;;;;;;;;;28.39;42.99;93924.50;5007367;28;9128;-84
2023/08/06 11:11:23;;;;;;;;;;;;;;;28.37;43.10;93927.09;5010259;28;7428;-84
2023/08/06 11:13:51;;;;;;;;;;;;;;;28.40;42.33;93914.19;5024804;28;7445;-85
2023/08/06 11:16:20;;;;;;;;;;;;;;;28.43;42.15;93924.91;5010436;28;9265;-84
2023/08/06 11:18:47;;;;;;;;;;;;;;;28.44;42.86;93929.19;5026446;28;8830;-83
2023/08/06 11:21:13;;;;;;;;;;;;;;;28.42;42.46;93925.47;5006593;28;8794;-84
2023/08/06 11:23:41;;;;;;;;;;;;;;;28.42;43.13;93928.97;5013007;28;8924;-85
2023/08/06 11:26:08;;;;;;;;;;;;;;;28.42;42.40;93933.75;5022957;28;9279;-84
2023/08/06 11:28:36;;;;;;;;;;;;;;;28.39;42.74;93927.28;5009199;28;7635;-84
2023/08/06 11:31:03;;;;;;;;;;;;;;;28.41;42.92;93930.25;5008024;28;8766;-84
2023/08/06 11:33:29;;;;;;;;;;;;;;;28.42;43.06;93928.22;5006615;28;7564;-84
2023/08/06 11:36:00;;;;;;;;;;;;;;;28.44;42.65;93931.94;5009651;28;8801;-84
2023/08/06 11:38:31;;;;;;;;;;;;;;;28.41;42.77;93951.63;5007426;28;8907;-84
2023/08/06 11:40:57;;;;;;;;;;;;;;;28.38;42.94;93944.44;5007896;28;9204;-85
2023/08/06 11:43:26;;;;;;;;;;;;;;;28.40;43.12;93936.31;5014205;28;9200;-85
2023/08/06 11:45:54;;;;;;;;;;;;;;;28.41;42.81;93937.78;5021528;28;9194;-84
2023/08/06 11:48:20;;;;;;;;;;;;;;;28.38;42.70;93943.13;5022945;28;8977;-84
2023/08/06 11:50:54;;;;;;;;;;;;;;;28.47;42.62;93952.97;5011831;28;8790;-85
2023/08/06 11:53:33;;;;;;;;;;;;;;;28.49;42.23;93953.19;5019778;28;9011;-84
2023/08/06 11:56:00;;;;;;;;;;;;;;;28.50;41.64;93940.84;5004336;28;7511;-84
2023/08/06 11:58:31;;;;;;;;;;;;;;;28.54;42.84;93951.56;5009112;28;7231;-84
2023/08/06 12:01:00;;;;;;;;;;;;;;;28.57;41.91;93947.72;5025381;28;7140;-83
2023/08/06 12:03:30;;;;;;;;;;;;;;;28.55;42.52;93942.72;5022120;28;8799;-84
2023/08/06 12:05:57;;;;;;;;;;;;;;;28.61;41.97;93954.44;5021606;28;7037;-84
2023/08/06 12:08:27;;;;;;;;;;;;;;;28.61;42.17;93962.72;5021009;28;7255;-85
2023/08/06 12:10:53;;;;;;;;;;;;;;;28.53;42.10;93947.31;5009131;28;8900;-83
2023/08/06 12:13:19;;;;;;;;;;;;;;;28.54;42.19;93944.00;5005367;28;7850;-83
2023/08/06 12:15:47;;;;;;;;;;;;;;;28.60;41.77;93955.69;5018136;28;9023;-84
2023/08/06 12:18:13;;;;;;;;;;;;;;;28.59;41.43;93950.72;5020929;28;9005;-84
2023/08/06 12:20:42;;;;;;;;;;;;;;;28.56;41.90;93954.56;5009552;28;8831;-85
2023/08/06 12:23:09;;;;;;;;;;;;;;;28.55;41.96;93987.00;5019645;28;8776;-84
2023/08/06 12:25:35;;;;;;;;;;;;;;;28.53;41.64;94000.63;4999106;28;9034;-84
2023/08/06 12:28:05;;;;;;;;;;;;;;;28.55;41.65;93998.06;5008577;28;7450;-87
2023/08/06 12:30:31;;;;;;;;;;;;;;;28.55;41.38;94002.84;5019748;28;8627;-87
2023/08/06 12:33:00;;;;;;;;;;;;;;;28.54;41.71;93984.75;5016258;28;8621;-87
2023/08/06 12:35:26;;;;;;;;;;;;;;;28.56;41.37;93996.06;5004808;28;7383;-87
2023/08/06 12:37:54;;;;;;;;;;;;;;;28.54;41.60;93996.56;5020571;28;8591;-87
2023/08/06 12:40:24;;;;;;;;;;;;;;;28.50;41.77;93989.88;5016532;28;8884;-87
2023/08/06 12:42:51;;;;;;;;;;;;;;;28.52;41.60;94001.91;5021452;28;8575;-87
2023/08/06 12:45:20;;;;;;;;;;;;;;;28.49;41.34;93997.47;5020803;28;8769;-87
2023/08/06 12:47:47;;;;;;;;;;;;;;;28.53;41.33;94014.47;5004143;28;9046;-87
2023/08/06 12:50:20;;;;;;;;;;;;;;;28.51;40.72;93997.66;5002172;28;9000;-87
2023/08/06 12:52:46;;;;;;;;;;;;;;;28.52;41.23;94010.22;5000388;28;9297;-87
2023/08/06 12:55:14;;;;;;;;;;;;;;;28.51;41.71;93996.91;5000951;28;7472;-87
2023/08/06 12:57:41;;;;;;;;;;;;;;;28.50;42.06;93996.16;5019018;28;9016;-87
2023/08/06 13:00:07;;;;;;;;;;;;;;;28.46;41.43;93993.00;5017107;28;9012;-87
2023/08/06 13:02:33;;;;;;;;;;;;;;;28.53;41.14;94002.66;5001812;28;8609;-87
2023/08/06 13:04:59;;;;;;;;;;;;;;;28.47;41.20;94000.00;5005359;28;8773;-86